Time;durP1;ratioP1;P1;durP2;ratioP2;P2;SDS_P1;SDS_P2;PMS_P1;PMS_P2;Temp;Humidity;BMP_temperature;BMP_pressure;BME280_temperature;BME280_humidity;BME280_pressure;Samples;Min_cycle;Max_cycle;Signal;HPM_P1;HPM_P2
2023/05/02 00:02:03;;;;;;;9.80;7.73;;;9.90;99.90;;;;;;5023550;28;20329;-77
2023/05/02 00:04:29;;;;;;;9.53;7.50;;;9.70;99.90;;;;;;5029989;28;20169;-75
2023/05/02 00:06:55;;;;;;;11.20;7.97;;;9.70;99.90;;;;;;5027954;28;20193;-76
2023/05/02 00:09:20;;;;;;;9.93;7.90;;;9.60;99.90;;;;;;5029300;28;20172;-76
2023/05/02 00:11:46;;;;;;;11.10;9.00;;;9.60;99.90;;;;;;5028271;28;20203;-75
2023/05/02 00:14:12;;;;;;;14.07;10.03;;;9.60;99.90;;;;;;5028023;28;20259;-76
2023/05/02 00:16:37;;;;;;;12.90;10.70;;;9.60;99.90;;;;;;5027877;28;20581;-75
2023/05/02 00:19:03;;;;;;;21.93;16.93;;;9.60;99.90;;;;;;5027958;28;20193;-76
2023/05/02 00:21:28;;;;;;;22.67;17.43;;;9.60;99.90;;;;;;5019257;28;20680;-76
2023/05/02 00:23:58;;;;;;;23.17;18.07;;;9.70;99.90;;;;;;5009668;28;20177;-76
2023/05/02 00:26:23;;;;;;;34.17;21.33;;;9.80;99.90;;;;;;5009315;28;20288;-76
2023/05/02 00:28:49;;;;;;;30.30;21.67;;;9.80;99.90;;;;;;5009649;28;20628;-78
2023/05/02 00:31:15;;;;;;;33.73;24.23;;;9.90;99.90;;;;;;5018570;28;20183;-78
2023/05/02 00:33:41;;;;;;;33.40;22.93;;;10.00;99.90;;;;;;5013863;28;20189;-78
2023/05/02 00:36:14;;;;;;;32.33;23.20;;;10.00;99.90;;;;;;5012466;28;20207;-78
2023/05/02 00:38:40;;;;;;;35.70;24.47;;;10.00;99.90;;;;;;5011449;28;20649;-76
2023/05/02 00:41:05;;;;;;;31.20;23.10;;;9.90;99.90;;;;;;5013886;28;20260;-76
2023/05/02 00:43:31;;;;;;;39.23;26.23;;;9.90;99.90;;;;;;5028934;28;20169;-76
2023/05/02 00:45:57;;;;;;;40.70;28.73;;;9.90;99.90;;;;;;5027511;28;20180;-76
2023/05/02 00:48:24;;;;;;;40.07;26.73;;;9.90;99.90;;;;;;5028852;28;20678;-76
2023/05/02 00:50:50;;;;;;;37.63;26.60;;;10.00;99.90;;;;;;5025026;28;20222;-76
2023/05/02 00:53:16;;;;;;;41.40;28.33;;;9.90;99.90;;;;;;5007709;28;20181;-76
2023/05/02 00:55:42;;;;;;;42.77;29.43;;;10.00;99.90;;;;;;5009002;28;20170;-75
2023/05/02 00:58:13;;;;;;;37.90;26.30;;;9.90;99.90;;;;;;5008867;28;20703;-76
2023/05/02 01:01:11;;;;;;;41.47;29.13;;;9.90;99.90;;;;;;5007514;28;20634;-76
2023/05/02 01:04:04;;;;;;;42.83;30.87;;;9.90;99.90;;;;;;5008271;28;20280;-76
2023/05/02 01:06:41;;;;;;;48.00;30.10;;;10.00;99.90;;;;;;5008985;28;20565;-76
2023/05/02 01:09:16;;;;;;;46.57;30.20;;;10.00;99.90;;;;;;5009144;28;20166;-76
2023/05/02 01:11:59;;;;;;;38.20;27.70;;;9.90;99.90;;;;;;5012007;28;20211;-76
2023/05/02 01:14:28;;;;;;;42.50;28.70;;;9.90;99.90;;;;;;5011228;28;20192;-76
2023/05/02 01:16:56;;;;;;;43.40;29.23;;;9.90;99.90;;;;;;5010706;28;20204;-77
2023/05/02 01:19:28;;;;;;;41.00;29.63;;;9.80;99.90;;;;;;5012105;28;20173;-76
2023/05/02 01:21:55;;;;;;;41.63;29.50;;;9.80;99.90;;;;;;5011976;28;20240;-76
2023/05/02 01:24:27;;;;;;;49.63;32.50;;;9.90;99.90;;;;;;5012259;28;20513;-76
2023/05/02 01:27:18;;;;;;;50.40;32.93;;;9.90;99.90;;;;;;5011988;28;20182;-76
2023/05/02 01:29:46;;;;;;;49.80;32.47;;;9.90;99.90;;;;;;5010637;28;20175;-75
2023/05/02 01:32:14;;;;;;;53.23;31.33;;;10.00;99.90;;;;;;5021014;28;20559;-76
2023/05/02 01:34:42;;;;;;;49.30;32.17;;;10.00;99.90;;;;;;5029509;28;20185;-79
2023/05/02 01:37:09;;;;;;;48.87;30.97;;;10.10;99.90;;;;;;5034426;28;20206;-79
2023/05/02 01:39:38;;;;;;;50.30;30.00;;;10.20;99.90;;;;;;5033533;28;20177;-79
2023/05/02 01:42:04;;;;;;;46.70;29.50;;;10.10;99.90;;;;;;5023266;28;20216;-79
2023/05/02 01:44:33;;;;;;;51.13;30.97;;;10.20;99.90;;;;;;5029053;28;20184;-79
2023/05/02 01:47:01;;;;;;;46.00;28.70;;;10.20;99.90;;;;;;5032154;28;20203;-79
2023/05/02 01:49:30;;;;;;;45.50;28.97;;;10.20;99.90;;;;;;5033934;28;20173;-79
2023/05/02 01:52:02;;;;;;;43.70;27.63;;;10.30;99.90;;;;;;5022631;28;20185;-76
2023/05/02 01:54:29;;;;;;;45.50;29.50;;;10.30;99.90;;;;;;5010228;28;20165;-75
2023/05/02 01:56:56;;;;;;;49.87;28.63;;;10.30;99.90;;;;;;5011392;28;20313;-76
2023/05/02 01:59:24;;;;;;;47.63;28.47;;;10.30;99.90;;;;;;5010115;28;20177;-76
2023/05/02 02:01:51;;;;;;;46.00;27.73;;;10.40;99.90;;;;;;5023818;28;20295;-77
2023/05/02 02:04:19;;;;;;;43.57;27.43;;;10.40;99.90;;;;;;5029781;28;20221;-77
2023/05/02 02:06:50;;;;;;;44.43;27.27;;;10.40;99.90;;;;;;5029696;28;20203;-76
2023/05/02 02:09:16;;;;;;;39.30;25.87;;;10.40;99.90;;;;;;5031079;28;20161;-77
2023/05/02 02:11:51;;;;;;;40.80;26.67;;;10.50;99.90;;;;;;5030067;28;20279;-76
2023/05/02 02:14:20;;;;;;;41.30;26.50;;;10.50;99.90;;;;;;5031159;28;20291;-77
2023/05/02 02:16:46;;;;;;;41.90;26.53;;;10.50;99.90;;;;;;5030823;28;20303;-77
2023/05/02 02:19:14;;;;;;;41.23;26.30;;;10.50;99.90;;;;;;5029670;28;20198;-77
2023/05/02 02:21:42;;;;;;;42.43;27.33;;;10.60;99.90;;;;;;5029771;28;20192;-77
2023/05/02 02:24:08;;;;;;;41.57;25.10;;;10.50;99.90;;;;;;5028532;28;20485;-77
2023/05/02 02:26:35;;;;;;;43.10;26.70;;;10.60;99.90;;;;;;5030700;28;20185;-77
2023/05/02 02:29:01;;;;;;;41.87;25.07;;;10.60;99.90;;;;;;5031404;28;20531;-77
2023/05/02 02:31:34;;;;;;;41.70;25.30;;;10.60;99.90;;;;;;5030674;28;20658;-76
2023/05/02 02:34:00;;;;;;;38.87;23.33;;;10.60;99.90;;;;;;5031178;28;20170;-76
2023/05/02 02:36:47;;;;;;;38.70;23.67;;;10.70;99.90;;;;;;5029224;28;20200;-77
2023/05/02 02:39:22;;;;;;;36.00;24.67;;;10.60;99.90;;;;;;5029266;28;20195;-76
2023/05/02 02:42:03;;;;;;;45.30;26.03;;;10.70;99.90;;;;;;5030697;28;20206;-76
2023/05/02 02:45:07;;;;;;;37.50;24.43;;;10.70;99.90;;;;;;5029261;28;20656;-77
2023/05/02 02:47:40;;;;;;;41.67;24.73;;;10.70;99.90;;;;;;5047625;28;20281;-76
2023/05/02 02:50:19;;;;;;;42.47;24.93;;;10.70;99.90;;;;;;5029159;28;20186;-77
2023/05/02 02:53:03;;;;;;;35.83;24.43;;;10.70;99.90;;;;;;5030629;28;20154;-77
2023/05/02 02:55:52;;;;;;;39.60;23.57;;;10.70;99.90;;;;;;5030087;28;20184;-76
2023/05/02 02:59:02;;;;;;;35.20;22.17;;;10.80;99.90;;;;;;5029049;28;20176;-77
2023/05/02 03:01:31;;;;;;;36.43;23.47;;;10.80;99.90;;;;;;5045781;28;20215;-77
2023/05/02 03:03:57;;;;;;;37.63;22.47;;;10.80;99.90;;;;;;5030531;28;20172;-77
2023/05/02 03:06:23;;;;;;;35.97;22.67;;;10.80;99.90;;;;;;5030082;28;20192;-76
2023/05/02 03:08:49;;;;;;;32.70;21.37;;;10.80;99.90;;;;;;5030121;28;20199;-77
2023/05/02 03:11:15;;;;;;;34.43;21.50;;;10.80;99.90;;;;;;5028436;28;20605;-77
2023/05/02 03:13:41;;;;;;;32.90;19.87;;;10.80;99.90;;;;;;5029910;28;20184;-76
2023/05/02 03:16:32;;;;;;;32.30;19.87;;;10.80;99.90;;;;;;5030002;28;20176;-76
2023/05/02 03:18:58;;;;;;;32.70;19.10;;;10.80;99.90;;;;;;5030254;28;20654;-76
2023/05/02 03:21:23;;;;;;;29.93;17.90;;;10.80;99.90;;;;;;5029834;28;20197;-76
2023/05/02 03:23:49;;;;;;;32.50;17.50;;;10.80;99.90;;;;;;5028605;28;20723;-76
2023/05/02 03:26:16;;;;;;;25.13;16.33;;;10.80;99.90;;;;;;5027997;28;20200;-76
2023/05/02 03:28:45;;;;;;;24.63;16.30;;;10.80;99.90;;;;;;5012287;28;20189;-76
2023/05/02 03:31:11;;;;;;;24.83;15.10;;;10.80;99.90;;;;;;5010114;28;20169;-77
2023/05/02 03:33:36;;;;;;;26.00;15.03;;;10.80;99.90;;;;;;5009763;28;20176;-77
2023/05/02 03:36:02;;;;;;;23.87;13.60;;;10.80;99.90;;;;;;5009976;28;20249;-77
2023/05/02 03:38:29;;;;;;;20.40;13.97;;;10.80;99.90;;;;;;5009995;28;20698;-76
2023/05/02 03:40:57;;;;;;;27.50;13.90;;;10.90;99.90;;;;;;5010325;28;20179;-77
2023/05/02 03:43:22;;;;;;;22.37;12.60;;;10.80;99.90;;;;;;5029628;28;20196;-77
2023/05/02 03:45:47;;;;;;;19.17;11.67;;;10.90;99.90;;;;;;5029571;28;20210;-76
2023/05/02 03:48:13;;;;;;;17.33;11.23;;;10.80;99.90;;;;;;5029499;28;20216;-76
2023/05/02 03:50:39;;;;;;;14.40;10.10;;;10.90;99.90;;;;;;5029604;28;20602;-77
2023/05/02 03:53:04;;;;;;;16.27;10.10;;;10.90;99.90;;;;;;5029546;28;20579;-76
2023/05/02 03:55:30;;;;;;;15.90;9.60;;;10.80;99.90;;;;;;5024767;28;20242;-77
2023/05/02 03:57:55;;;;;;;16.23;9.83;;;10.90;99.90;;;;;;5008383;28;20269;-76
2023/05/02 04:00:21;;;;;;;14.10;10.30;;;10.90;99.90;;;;;;5009759;28;20542;-77
2023/05/02 04:02:48;;;;;;;15.77;9.80;;;10.90;99.90;;;;;;5009641;28;20223;-77
2023/05/02 04:05:13;;;;;;;14.60;10.33;;;10.90;99.90;;;;;;5009652;28;20173;-77
2023/05/02 04:07:39;;;;;;;15.87;9.87;;;10.90;99.90;;;;;;5009533;28;20196;-77
2023/05/02 04:10:05;;;;;;;14.73;9.73;;;10.90;99.90;;;;;;5009663;28;20177;-79
2023/05/02 04:12:31;;;;;;;17.60;10.13;;;10.90;99.90;;;;;;5022900;28;20581;-79
2023/05/02 04:14:56;;;;;;;15.60;10.40;;;10.90;99.90;;;;;;5031981;28;20232;-79
2023/05/02 04:17:22;;;;;;;19.33;9.70;;;10.90;99.90;;;;;;5031947;28;20208;-79
2023/05/02 04:19:47;;;;;;;17.47;9.80;;;10.90;99.90;;;;;;5032169;28;20187;-79
2023/05/02 04:22:13;;;;;;;16.40;10.47;;;10.90;99.90;;;;;;5031350;28;20223;-79
2023/05/02 04:24:38;;;;;;;15.63;10.40;;;10.90;99.90;;;;;;5032396;28;20172;-79
2023/05/02 04:27:04;;;;;;;15.63;9.43;;;10.90;99.90;;;;;;5032595;28;20224;-78
2023/05/02 04:29:29;;;;;;;17.63;9.43;;;10.90;99.90;;;;;;5030002;28;20267;-79
2023/05/02 04:31:55;;;;;;;16.93;10.23;;;11.00;99.90;;;;;;5032238;28;20255;-79
2023/05/02 04:34:20;;;;;;;17.70;10.07;;;11.00;99.90;;;;;;5032766;28;20176;-79
2023/05/02 04:36:46;;;;;;;15.10;9.60;;;11.00;99.90;;;;;;5032136;28;20271;-79
2023/05/02 04:39:12;;;;;;;14.90;9.70;;;11.00;99.90;;;;;;5032400;28;20722;-79
2023/05/02 04:41:37;;;;;;;16.83;10.00;;;10.90;99.90;;;;;;5030422;28;20351;-79
2023/05/02 04:44:03;;;;;;;17.97;9.80;;;10.90;99.90;;;;;;5030908;28;20181;-79
2023/05/02 04:46:29;;;;;;;19.53;11.50;;;10.90;99.90;;;;;;5034201;28;20208;-78
2023/05/02 04:48:54;;;;;;;17.83;10.30;;;10.90;99.90;;;;;;5035788;28;20636;-79
2023/05/02 04:51:20;;;;;;;16.27;10.33;;;10.90;99.90;;;;;;5035390;28;20180;-79
2023/05/02 04:53:45;;;;;;;19.03;11.23;;;10.80;99.90;;;;;;5034355;28;20253;-79
2023/05/02 04:56:11;;;;;;;21.30;12.13;;;10.80;99.90;;;;;;5035279;28;20253;-79
2023/05/02 04:58:37;;;;;;;17.67;11.53;;;10.80;99.90;;;;;;5033972;28;20251;-78
2023/05/02 05:01:03;;;;;;;22.57;13.20;;;10.80;99.90;;;;;;5028535;28;20208;-79
2023/05/02 05:03:29;;;;;;;24.57;15.23;;;10.80;99.90;;;;;;5015358;28;20183;-79
2023/05/02 05:05:55;;;;;;;26.87;14.17;;;10.90;99.90;;;;;;5014883;28;20165;-79
2023/05/02 05:08:20;;;;;;;25.10;15.43;;;10.80;99.90;;;;;;5014203;28;20180;-79
2023/05/02 05:10:46;;;;;;;27.80;16.33;;;10.80;99.90;;;;;;5015007;28;20263;-79
2023/05/02 05:13:12;;;;;;;28.43;16.47;;;10.70;99.90;;;;;;5015665;28;20583;-79
2023/05/02 05:15:39;;;;;;;24.33;15.80;;;10.70;99.90;;;;;;5017986;28;20184;-79
2023/05/02 05:18:05;;;;;;;22.27;15.57;;;10.70;99.90;;;;;;5031876;28;20197;-78
2023/05/02 05:20:31;;;;;;;24.40;15.57;;;10.70;99.90;;;;;;5032198;28;20517;-77
2023/05/02 05:22:56;;;;;;;24.67;15.53;;;10.70;99.90;;;;;;5030615;28;20196;-77
2023/05/02 05:25:22;;;;;;;24.00;14.87;;;10.70;99.90;;;;;;5031855;28;20191;-77
2023/05/02 05:27:48;;;;;;;22.70;13.53;;;10.60;99.90;;;;;;5031873;28;20188;-77
2023/05/02 05:30:13;;;;;;;19.70;11.77;;;10.60;99.90;;;;;;5030443;28;20591;-77
2023/05/02 05:32:39;;;;;;;16.70;10.40;;;10.60;99.90;;;;;;5031961;28;20728;-77
2023/05/02 05:35:04;;;;;;;14.40;9.27;;;10.50;99.90;;;;;;5032001;28;20172;-77
2023/05/02 05:37:30;;;;;;;11.87;8.00;;;10.60;99.90;;;;;;5032091;28;20704;-77
2023/05/02 05:39:56;;;;;;;11.77;7.53;;;10.50;99.90;;;;;;5030436;28;20180;-77
2023/05/02 05:42:21;;;;;;;13.37;7.13;;;10.50;99.90;;;;;;5017186;28;20201;-77
2023/05/02 05:44:47;;;;;;;14.10;7.63;;;10.50;99.90;;;;;;5011992;28;20590;-76
2023/05/02 05:47:18;;;;;;;10.57;7.53;;;10.50;99.90;;;;;;5011709;28;20189;-77
2023/05/02 05:49:44;;;;;;;12.37;7.70;;;10.60;99.90;;;;;;5010493;28;20173;-77
2023/05/02 05:52:09;;;;;;;10.83;7.57;;;10.60;99.90;;;;;;5011684;28;20310;-78
2023/05/02 05:54:34;;;;;;;13.33;8.80;;;10.50;99.90;;;;;;5012065;28;20173;-77
2023/05/02 05:57:00;;;;;;;16.10;9.10;;;10.50;99.90;;;;;;5023635;28;20701;-79
2023/05/02 05:59:26;;;;;;;19.83;8.30;;;10.50;99.90;;;;;;5031826;28;20179;-77
2023/05/02 06:01:52;;;;;;;14.03;8.00;;;10.50;99.90;;;;;;5030049;28;20200;-76
2023/05/02 06:04:18;;;;;;;9.83;6.37;;;10.50;99.90;;;;;;5031638;28;20252;-76
2023/05/02 06:06:43;;;;;;;11.53;5.70;;;10.40;99.90;;;;;;5029864;28;20626;-77
2023/05/02 06:09:09;;;;;;;10.70;5.50;;;10.40;99.90;;;;;;5031146;28;20196;-77
2023/05/02 06:11:36;;;;;;;10.70;4.97;;;10.40;99.90;;;;;;5030117;28;20200;-79
2023/05/02 06:14:02;;;;;;;7.90;4.50;;;10.40;99.90;;;;;;5026672;28;20278;-77
2023/05/02 06:16:28;;;;;;;7.57;4.67;;;10.40;99.90;;;;;;5030948;28;20763;-77
2023/05/02 06:18:53;;;;;;;9.23;4.80;;;10.50;99.90;;;;;;5031405;28;20229;-77
2023/05/02 06:21:19;;;;;;;5.77;3.97;;;10.60;99.90;;;;;;5030843;28;20196;-77
2023/05/02 06:23:45;;;;;;;11.47;4.77;;;10.60;99.90;;;;;;5030816;28;20176;-77
2023/05/02 06:26:10;;;;;;;10.50;4.50;;;10.60;99.90;;;;;;5029486;28;20173;-76
2023/05/02 06:28:36;;;;;;;10.80;5.50;;;10.60;99.90;;;;;;5028521;28;20179;-78
2023/05/02 06:31:04;;;;;;;9.47;4.60;;;10.70;99.90;;;;;;5030031;28;20649;-77
2023/05/02 06:33:31;;;;;;;8.23;4.00;;;10.70;99.90;;;;;;5030778;28;20598;-77
2023/05/02 06:35:57;;;;;;;12.33;5.47;;;10.70;99.90;;;;;;5030598;28;20255;-77
2023/05/02 06:38:23;;;;;;;9.50;4.07;;;10.80;99.90;;;;;;5030760;28;20172;-76
2023/05/02 06:40:49;;;;;;;10.67;4.20;;;10.70;99.90;;;;;;5030630;28;20176;-76
2023/05/02 06:43:15;;;;;;;8.30;3.90;;;10.80;99.90;;;;;;5021254;28;20200;-77
2023/05/02 06:45:41;;;;;;;8.07;4.00;;;10.80;99.90;;;;;;5010820;28;20248;-76
2023/05/02 06:48:07;;;;;;;8.07;4.03;;;10.80;99.90;;;;;;5010702;28;20211;-76
2023/05/02 06:50:33;;;;;;;12.57;4.23;;;10.90;99.90;;;;;;5014040;28;20192;-77
2023/05/02 06:52:59;;;;;;;10.50;3.37;;;10.90;99.90;;;;;;5030429;28;20177;-77
2023/05/02 06:55:25;;;;;;;9.63;4.03;;;10.90;99.90;;;;;;5029054;28;20186;-76
2023/05/02 06:57:51;;;;;;;12.90;4.80;;;11.00;99.90;;;;;;5030381;28;20674;-77
2023/05/02 07:00:17;;;;;;;8.63;4.23;;;11.00;99.90;;;;;;5030261;28;20675;-77
2023/05/02 07:02:48;;;;;;;13.30;5.90;;;11.00;99.90;;;;;;5028886;28;20197;-77
2023/05/02 07:05:14;;;;;;;15.63;5.67;;;11.00;99.90;;;;;;5017527;28;20273;-77
2023/05/02 07:07:43;;;;;;;9.13;4.13;;;11.00;99.90;;;;;;5028839;28;20199;-76
2023/05/02 07:10:10;;;;;;;10.63;3.87;;;11.00;99.90;;;;;;5030262;28;20233;-77
2023/05/02 07:12:36;;;;;;;5.67;2.80;;;11.00;99.90;;;;;;5028802;28;20199;-76
2023/05/02 07:15:01;;;;;;;5.03;2.43;;;11.00;99.90;;;;;;5028745;28;20176;-76
2023/05/02 07:17:27;;;;;;;7.93;2.13;;;10.90;99.90;;;;;;5028714;28;20305;-77
2023/05/02 07:19:53;;;;;;;7.90;2.10;;;10.80;99.20;;;;;;5030072;28;20196;-77
2023/05/02 07:22:19;;;;;;;6.70;2.30;;;10.80;99.90;;;;;;5027702;28;20227;-78
2023/05/02 07:24:45;;;;;;;6.57;2.33;;;10.80;99.90;;;;;;5029953;28;20169;-77
2023/05/02 07:27:11;;;;;;;7.73;2.27;;;10.80;41.70;;;;;;5030324;28;20196;-78
2023/05/02 07:29:38;;;;;;;6.67;2.07;;;10.80;92.40;;;;;;5025813;28;20530;-76
2023/05/02 07:32:04;;;;;;;7.60;2.60;;;10.70;99.90;;;;;;5009958;28;20196;-75
2023/05/02 07:34:30;;;;;;;4.53;2.23;;;10.70;99.90;;;;;;5022766;28;20195;-76
2023/05/02 07:36:57;;;;;;;5.07;1.87;;;10.70;99.90;;;;;;5029856;28;20192;-77
2023/05/02 07:39:24;;;;;;;6.10;1.63;;;10.70;99.90;;;;;;5028851;28;20550;-77
2023/05/02 07:41:53;;;;;;;8.53;2.43;;;10.70;99.90;;;;;;5019374;28;20764;-77
2023/05/02 07:44:20;;;;;;;8.13;3.10;;;10.70;99.90;;;;;;5010256;28;20171;-76
2023/05/02 07:46:46;;;;;;;7.43;2.97;;;10.70;99.90;;;;;;5009908;28;20216;-75
2023/05/02 07:49:12;;;;;;;9.90;3.67;;;10.80;99.90;;;;;;5009900;28;20165;-77
2023/05/02 07:51:38;;;;;;;6.20;3.20;;;10.70;99.90;;;;;;5009821;28;20242;-75
2023/05/02 07:54:17;;;;;;;6.93;2.83;;;10.80;99.90;;;;;;5009878;28;20574;-76
2023/05/02 07:56:43;;;;;;;4.43;2.70;;;10.80;99.90;;;;;;5008378;28;20296;-76
2023/05/02 07:59:08;;;;;;;5.87;2.67;;;10.90;99.90;;;;;;5009871;28;20490;-76
2023/05/02 08:01:34;;;;;;;6.63;2.47;;;10.90;99.90;;;;;;5010109;28;20263;-76
2023/05/02 08:04:00;;;;;;;6.70;2.33;;;10.90;99.90;;;;;;5009842;28;20169;-76
2023/05/02 08:06:27;;;;;;;7.07;2.70;;;10.90;1.00;;;;;;5009560;28;20185;-76
2023/05/02 08:08:53;;;;;;;6.43;2.20;;;10.80;1.00;;;;;;5008328;28;20529;-76
2023/05/02 08:11:20;;;;;;;5.77;2.37;;;10.80;1.00;;;;;;5010485;28;20176;-78
2023/05/02 08:13:46;;;;;;;10.27;3.00;;;10.90;1.00;;;;;;5027834;28;20187;-76
2023/05/02 08:16:12;;;;;;;3.37;2.33;;;10.80;1.00;;;;;;5028059;28;20164;-76
2023/05/02 08:18:38;;;;;;;6.40;2.43;;;10.90;1.00;;;;;;5029253;28;20172;-76
2023/05/02 08:21:03;;;;;;;4.73;2.40;;;10.90;1.00;;;;;;5032159;28;20256;-76
2023/05/02 08:23:30;;;;;;;5.43;2.30;;;10.90;1.00;;;;;;5032817;28;20177;-76
2023/05/02 08:25:55;;;;;;;6.43;2.50;;;11.00;1.00;;;;;;5032644;28;20654;-76
2023/05/02 08:28:21;;;;;;;4.37;2.30;;;11.00;1.00;;;;;;5031149;28;20184;-76
2023/05/02 08:30:47;;;;;;;5.87;1.97;;;11.00;1.00;;;;;;5032765;28;20649;-76
2023/05/02 08:33:13;;;;;;;6.60;1.93;;;10.90;1.00;;;;;;5032601;28;20200;-76
2023/05/02 08:35:39;;;;;;;5.80;1.93;;;11.00;1.00;;;;;;5031311;28;20176;-76
2023/05/02 08:38:05;;;;;;;6.73;2.20;;;10.90;1.00;;;;;;5032490;28;20547;-76
2023/05/02 08:40:35;;;;;;;11.87;2.30;;;10.90;1.00;;;;;;5031249;28;20179;-76
2023/05/02 08:43:01;;;;;;;9.47;1.93;;;10.90;1.00;;;;;;5022757;28;20200;-76
2023/05/02 08:45:36;;;;;;;5.47;1.83;;;11.00;1.00;;;;;;5012787;28;20172;-76
2023/05/02 08:48:12;;;;;;;3.97;1.67;;;10.90;1.00;;;;;;5012864;28;20219;-76
2023/05/02 08:50:40;;;;;;;3.33;1.50;;;10.90;1.00;;;;;;5011374;28;20165;-76
2023/05/02 08:53:07;;;;;;;5.50;1.57;;;11.00;1.00;;;;;;5012502;28;20656;-76
2023/05/02 08:55:35;;;;;;;1.50;1.20;;;11.00;1.00;;;;;;5011249;28;20566;-76
2023/05/02 08:58:03;;;;;;;5.70;1.83;;;11.00;1.00;;;;;;5011114;28;20311;-76
2023/05/02 09:00:29;;;;;;;3.27;1.43;;;10.90;1.00;;;;;;5026903;28;20184;-76
2023/05/02 09:03:10;;;;;;;4.20;1.63;;;11.00;1.00;;;;;;5032535;28;20639;-77
2023/05/02 09:05:40;;;;;;;4.33;1.80;;;11.10;1.00;;;;;;5030829;28;20207;-76
2023/05/02 09:08:07;;;;;;;6.47;1.83;;;11.10;1.00;;;;;;5030753;28;20287;-76
2023/05/02 09:10:35;;;;;;;7.30;1.93;;;11.30;1.00;;;;;;5031998;28;20260;-76
2023/05/02 09:13:29;;;;;;;6.40;2.13;;;11.40;1.00;;;;;;5031230;28;20189;-75
2023/05/02 09:16:00;;;;;;;6.77;2.20;;;11.40;99.90;;;;;;5028427;28;20694;-75
2023/05/02 09:18:35;;;;;;;6.93;2.00;;;11.60;99.90;;;;;;5028208;28;20221;-77
2023/05/02 09:21:05;;;;;;;5.50;2.03;;;11.30;99.90;;;;;;5029417;28;20203;-77
2023/05/02 09:23:34;;;;;;;4.33;1.87;;;11.40;99.90;;;;;;5029421;28;20556;-76
2023/05/02 09:26:00;;;;;;;6.70;2.63;;;11.50;99.90;;;;;;5030582;28;20243;-77
2023/05/02 09:28:40;;;;;;;3.43;1.73;;;11.50;99.90;;;;;;5030886;28;20279;-77
2023/05/02 09:31:08;;;;;;;8.30;2.03;;;11.60;99.90;;;;;;5029195;28;20584;-76
2023/05/02 09:33:34;;;;;;;4.77;1.93;;;11.70;99.90;;;;;;5027293;28;20663;-76
2023/05/02 09:36:00;;;;;;;5.43;2.17;;;11.80;99.90;;;;;;5022795;28;20224;-75
2023/05/02 09:38:25;;;;;;;5.67;2.00;;;11.90;99.90;;;;;;5028371;28;20184;-76
2023/05/02 09:40:55;;;;;;;5.60;2.57;;;11.90;99.90;;;;;;5028150;28;20172;-78
2023/05/02 09:43:20;;;;;;;6.37;2.43;;;11.90;99.90;;;;;;5010661;28;20726;-76
2023/05/02 09:45:56;;;;;;;9.03;3.10;;;12.10;99.90;;;;;;5010673;28;20172;-75
2023/05/02 09:48:21;;;;;;;3.73;1.80;;;12.30;99.90;;;;;;5010942;28;20153;-77
2023/05/02 09:50:47;;;;;;;5.20;2.03;;;12.30;99.90;;;;;;5011125;28;20186;-76
2023/05/02 09:53:12;;;;;;;7.23;2.40;;;12.30;99.90;;;;;;5010571;28;20264;-76
2023/05/02 09:55:38;;;;;;;6.50;2.87;;;12.40;99.90;;;;;;5015803;28;20285;-76
2023/05/02 09:58:05;;;;;;;5.70;2.33;;;12.60;99.90;;;;;;5028846;28;20192;-76
2023/05/02 10:00:42;;;;;;;8.00;3.30;;;12.70;99.90;;;;;;5028930;28;20674;-76
2023/05/02 10:03:08;;;;;;;6.40;3.07;;;12.80;99.90;;;;;;5030071;28;20192;-76
2023/05/02 10:05:38;;;;;;;8.10;3.10;;;12.90;16.10;;;;;;5028412;28;20172;-77
2023/05/02 10:08:06;;;;;;;6.93;2.87;;;12.90;1.00;;;;;;5010328;28;20194;-76
2023/05/02 10:10:35;;;;;;;9.67;3.00;;;12.90;1.00;;;;;;5010629;28;20196;-77
2023/05/02 10:13:02;;;;;;;7.93;2.80;;;12.90;47.30;;;;;;4973813;28;1036906;-76
2023/05/02 10:15:30;;;;;;;9.67;3.30;;;12.90;1.00;;;;;;5011374;28;20177;-76
2023/05/02 10:18:04;;;;;;;8.03;2.73;;;13.00;28.20;;;;;;5009907;28;20234;-76
2023/05/02 10:20:35;;;;;;;6.73;2.80;;;12.90;1.00;;;;;;5016902;28;20283;-76
2023/05/02 10:23:02;;;;;;;8.37;3.27;;;12.80;1.00;;;;;;5029681;28;20690;-77
2023/05/02 10:25:28;;;;;;;7.17;3.03;;;12.80;1.00;;;;;;5030901;28;20216;-76
2023/05/02 10:27:57;;;;;;;5.83;2.87;;;12.70;1.00;;;;;;5030888;28;20201;-76
2023/05/02 10:30:23;;;;;;;6.37;2.10;;;12.70;12.50;;;;;;5029449;28;20184;-77
2023/05/02 10:32:51;;;;;;;6.90;2.33;;;12.70;34.00;;;;;;5030990;28;20554;-75
2023/05/02 10:35:18;;;;;;;5.43;2.53;;;12.60;53.60;;;;;;5030909;28;20173;-77
2023/05/02 10:37:44;;;;;;;7.40;2.60;;;12.60;99.90;;;;;;5029027;28;20231;-77
2023/05/02 10:40:11;;;;;;;7.13;1.97;;;12.60;99.90;;;;;;5029632;28;20522;-77
2023/05/02 10:42:40;;;;;;;5.50;2.90;;;12.60;99.90;;;;;;5029674;28;20293;-77
2023/05/02 10:45:31;;;;;;;10.67;2.40;;;12.60;8.70;;;;;;5029272;28;20310;-77
2023/05/02 10:48:21;;;;;;;5.57;2.60;;;12.50;47.00;;;;;;5030635;28;20198;-77
2023/05/02 10:50:50;;;;;;;8.07;2.60;;;12.50;88.80;;;;;;5029268;28;20276;-77
2023/05/02 10:53:43;;;;;;;7.20;2.53;;;12.50;85.60;;;;;;5028255;28;20187;-77
2023/05/02 10:56:24;;;;;;;7.47;2.97;;;12.40;22.60;;;;;;5030580;28;20248;-77
2023/05/02 10:59:26;;;;;;;10.60;2.73;;;12.30;19.40;;;;;;5030581;28;20189;-76
2023/05/02 11:01:51;;;;;;;9.43;3.13;;;12.30;1.00;;;;;;5029083;28;20294;-76
2023/05/02 11:04:17;;;;;;;8.17;3.07;;;12.40;1.00;;;;;;5030237;28;20256;-76
2023/05/02 11:06:58;;;;;;;9.40;2.70;;;12.30;1.00;;;;;;5030452;28;20196;-77
2023/05/02 11:09:23;;;;;;;10.87;2.80;;;12.40;13.80;;;;;;5027646;28;20207;-76
2023/05/02 11:11:51;;;;;;;6.73;2.73;;;12.40;4.30;;;;;;5030030;28;20215;-76
2023/05/02 11:14:29;;;;;;;9.77;2.47;;;12.50;10.10;;;;;;5028858;28;20646;-76
2023/05/02 11:16:58;;;;;;;8.07;2.60;;;12.50;1.00;;;;;;5030188;28;20188;-77
2023/05/02 11:19:28;;;;;;;7.57;4.07;;;12.40;1.00;;;;;;5030274;28;20217;-76
2023/05/02 11:22:19;;;;;;;9.20;3.00;;;12.50;1.00;;;;;;5030185;28;20193;-77
2023/05/02 11:24:47;;;;;;;7.27;2.30;;;12.60;1.00;;;;;;5029968;28;20164;-77
2023/05/02 11:27:28;;;;;;;7.73;2.70;;;12.60;1.00;;;;;;5027723;28;20200;-77
2023/05/02 11:30:01;;;;;;;10.17;2.63;;;12.60;1.00;;;;;;5030129;28;20559;-76
2023/05/02 11:32:48;;;;;;;5.77;2.30;;;12.70;1.00;;;;;;5029872;28;20237;-77
2023/05/02 11:35:20;;;;;;;5.73;2.43;;;13.00;1.00;;;;;;5028529;28;20285;-76
2023/05/02 11:37:53;;;;;;;4.70;2.30;;;12.80;1.00;;;;;;5029691;28;20651;-76
2023/05/02 11:40:18;;;;;;;5.43;2.93;;;13.00;1.00;;;;;;5028490;28;20188;-76
2023/05/02 11:42:44;;;;;;;8.67;2.50;;;13.10;1.00;;;;;;5028260;28;20691;-76
2023/05/02 11:45:10;;;;;;;10.93;2.80;;;13.00;1.00;;;;;;5028566;28;20259;-76
2023/05/02 11:47:36;;;;;;;6.60;2.23;;;13.10;1.00;;;;;;5029658;28;20192;-76
2023/05/02 11:50:05;;;;;;;9.30;2.80;;;13.20;99.90;;;;;;5029880;28;20184;-77
2023/05/02 11:52:37;;;;;;;5.90;2.50;;;13.20;1.00;;;;;;5028340;28;20207;-76
2023/05/02 11:55:05;;;;;;;6.77;2.60;;;13.30;99.90;;;;;;5029610;28;20244;-77
2023/05/02 11:57:32;;;;;;;7.70;2.77;;;13.10;99.90;;;;;;5028505;28;20204;-76
2023/05/02 11:59:58;;;;;;;5.17;2.17;;;13.20;1.00;;;;;;5028307;28;20176;-77
2023/05/02 12:02:37;;;;;;;5.00;2.47;;;13.40;1.00;;;;;;5028373;28;20207;-77
2023/05/02 12:05:06;;;;;;;6.10;2.60;;;13.40;1.00;;;;;;5029780;28;20187;-78
2023/05/02 12:07:43;;;;;;;7.77;2.70;;;13.20;1.00;;;;;;5028570;28;20193;-77
2023/05/02 12:10:10;;;;;;;5.40;2.50;;;13.00;99.90;;;;;;5028519;28;20187;-76
2023/05/02 12:12:38;;;;;;;5.03;3.10;;;13.10;1.00;;;;;;5028651;28;20252;-79
2023/05/02 12:15:05;;;;;;;7.63;2.57;;;13.10;1.00;;;;;;5027327;28;20751;-76
2023/05/02 12:17:32;;;;;;;7.40;2.43;;;13.20;1.00;;;;;;5029661;28;20215;-77
2023/05/02 12:19:58;;;;;;;10.53;2.73;;;13.30;99.90;;;;;;5028311;28;20718;-76
2023/05/02 12:22:24;;;;;;;7.07;2.80;;;13.30;1.00;;;;;;5027930;28;20291;-77
2023/05/02 12:24:52;;;;;;;4.03;2.23;;;13.30;99.90;;;;;;5029303;28;20195;-75
2023/05/02 12:27:18;;;;;;;5.00;2.47;;;13.30;1.00;;;;;;5029360;28;20181;-77
2023/05/02 12:29:46;;;;;;;7.17;3.70;;;13.30;99.90;;;;;;5028119;28;20543;-76
2023/05/02 12:32:12;;;;;;;5.63;3.40;;;13.20;99.90;;;;;;5027185;28;20574;-77
2023/05/02 12:34:39;;;;;;;7.13;2.80;;;13.20;99.90;;;;;;5029202;28;20188;-76
2023/05/02 12:37:06;;;;;;;4.40;2.50;;;13.30;99.90;;;;;;5029215;28;20199;-76
2023/05/02 12:39:39;;;;;;;10.70;3.07;;;13.40;1.00;;;;;;5029061;28;20179;-77
2023/05/02 12:42:10;;;;;;;3.00;1.73;;;13.40;99.90;;;;;;5028955;28;20329;-77
2023/05/02 12:44:37;;;;;;;9.93;2.20;;;13.60;99.90;;;;;;5029006;28;20160;-77
2023/05/02 12:47:03;;;;;;;3.43;1.90;;;13.70;99.90;;;;;;5027079;28;20207;-77
2023/05/02 12:49:28;;;;;;;6.97;3.07;;;13.70;99.90;;;;;;5028909;28;20176;-77